Time;durP1;ratioP1;P1;durP2;ratioP2;P2;SDS_P1;SDS_P2;PMS_P1;PMS_P2;Temp;Humidity;BMP_temperature;BMP_pressure;BME280_temperature;BME280_humidity;BME280_pressure;Samples;Min_cycle;Max_cycle;Signal;HPM_P1;HPM_P2
2022/04/05 00:00:52;;;;;;;8.50;3.13;;;;;;;9.60;93.36;100031.28;6285739;22;20066;-75
2022/04/05 00:03:17;;;;;;;9.00;4.43;;;;;;;9.59;94.00;100034.28;6260476;22;20334;-76
2022/04/05 00:05:43;;;;;;;6.70;4.25;;;;;;;9.61;94.06;100034.88;6256153;22;20061;-75
2022/04/05 00:08:09;;;;;;;6.63;3.63;;;;;;;9.52;93.75;100020.09;6256344;22;20003;-76
2022/04/05 00:10:39;;;;;;;10.25;3.95;;;;;;;9.55;93.70;100023.09;6286426;22;20020;-76
2022/04/05 00:13:15;;;;;;;4.97;3.38;;;;;;;9.57;93.56;100026.38;6231907;22;20018;-77
2022/04/05 00:15:44;;;;;;;10.98;3.97;;;;;;;9.54;93.81;100032.38;6232133;22;20011;-78
2022/04/05 00:18:12;;;;;;;7.90;3.42;;;;;;;9.53;93.91;100033.47;6255713;22;20004;-74
2022/04/05 00:20:38;;;;;;;13.52;4.43;;;;;;;9.35;94.35;100007.47;6229865;22;20065;-75
2022/04/05 00:23:05;;;;;;;8.20;3.63;;;;;;;9.47;94.15;100031.00;6255994;22;20075;-73
2022/04/05 00:25:31;;;;;;;8.63;4.53;;;;;;;9.48;94.32;100036.19;6257216;22;20038;-74
2022/04/05 00:27:57;;;;;;;5.90;3.78;;;;;;;9.32;94.69;100012.69;6256283;22;20007;-74
2022/04/05 00:30:25;;;;;;;8.93;4.03;;;;;;;9.17;94.92;100006.06;6257038;22;20334;-75
2022/04/05 00:32:50;;;;;;;6.35;3.97;;;;;;;9.15;95.10;100002.78;6259478;22;20014;-74
2022/04/05 00:35:18;;;;;;;8.23;3.97;;;;;;;9.02;95.09;100006.00;6287866;22;20058;-75
2022/04/05 00:37:46;;;;;;;9.90;3.58;;;;;;;8.91;95.45;100003.22;6258209;22;20007;-75
2022/04/05 00:40:12;;;;;;;6.97;4.25;;;;;;;8.94;96.09;100012.78;6256367;22;20067;-76
2022/04/05 00:42:40;;;;;;;11.55;4.65;;;;;;;8.83;96.50;100002.91;6204243;22;20011;-75
2022/04/05 00:45:06;;;;;;;8.13;4.45;;;;;;;8.82;96.22;100002.09;6257221;22;20014;-75
2022/04/05 00:47:32;;;;;;;8.73;3.92;;;;;;;8.98;96.70;100022.09;6253690;22;20054;-75
2022/04/05 00:49:58;;;;;;;11.98;4.80;;;;;;;8.78;96.63;99987.34;6255713;22;20007;-74
2022/04/05 00:52:23;;;;;;;10.23;4.70;;;;;;;8.77;96.50;100004.78;6282710;22;20321;-75
2022/04/05 00:54:53;;;;;;;11.30;4.63;;;;;;;8.81;96.75;100018.72;6281279;22;20030;-74
2022/04/05 00:57:21;;;;;;;13.77;4.97;;;;;;;8.73;97.56;100018.13;6256654;22;20019;-74
2022/04/05 00:59:52;;;;;;;9.45;5.45;;;;;;;8.69;97.57;100017.00;6280996;22;20003;-76
2022/04/05 01:02:19;;;;;;;8.48;4.50;;;;;;;8.66;97.78;100009.34;6254774;22;20015;-74
2022/04/05 01:04:45;;;;;;;12.02;4.82;;;;;;;8.60;97.51;100006.84;6281157;22;20015;-74
2022/04/05 01:07:23;;;;;;;9.63;4.78;;;;;;;8.61;98.01;100008.50;6254442;22;20069;-72
2022/04/05 01:09:56;;;;;;;14.10;6.30;;;;;;;8.59;98.22;100005.22;6250982;22;20004;-72
2022/04/05 01:12:22;;;;;;;7.57;5.35;;;;;;;8.61;98.50;100008.50;6281059;22;20007;-73
2022/04/05 01:14:48;;;;;;;11.57;5.65;;;;;;;8.62;98.23;100007.44;6277273;22;20042;-72
2022/04/05 01:17:14;;;;;;;12.07;5.43;;;;;;;8.63;98.32;99995.41;6280323;22;20121;-73
2022/04/05 01:19:40;;;;;;;16.40;5.97;;;;;;;8.65;98.23;100006.91;6281927;22;20035;-74
2022/04/05 01:22:06;;;;;;;8.40;5.38;;;;;;;8.65;97.42;100010.44;6280326;22;20015;-74
2022/04/05 01:24:32;;;;;;;8.27;5.35;;;;;;;8.71;97.82;100019.47;6282562;22;20050;-75
2022/04/05 01:26:59;;;;;;;9.90;5.35;;;;;;;8.80;97.93;100017.88;6281409;22;20053;-74
2022/04/05 01:29:26;;;;;;;12.48;5.18;;;;;;;8.78;97.19;100003.69;6227965;22;20011;-73
2022/04/05 01:32:06;;;;;;;11.43;5.57;;;;;;;8.81;97.26;99986.81;6282334;22;20054;-74
2022/04/05 01:34:34;;;;;;;12.25;5.63;;;;;;;8.96;96.45;100004.34;6279965;22;20112;-74
2022/04/05 01:37:01;;;;;;;12.52;5.53;;;;;;;9.01;96.10;100004.34;6282475;22;20004;-74
2022/04/05 01:39:34;;;;;;;18.15;5.40;;;;;;;9.08;95.92;100008.47;6281463;22;20047;-74
2022/04/05 01:42:05;;;;;;;10.45;5.45;;;;;;;9.12;95.44;99999.78;6282313;22;20003;-74
2022/04/05 01:44:33;;;;;;;10.95;4.97;;;;;;;9.15;95.25;100002.78;6281478;22;20035;-73
2022/04/05 01:47:09;;;;;;;8.63;5.57;;;;;;;9.15;94.82;99997.31;6281329;22;20022;-73
2022/04/05 01:49:34;;;;;;;11.85;5.93;;;;;;;9.19;94.81;100003.88;6279418;22;19995;-73
2022/04/05 01:52:00;;;;;;;9.80;5.53;;;;;;;9.22;94.47;99995.16;6254212;22;20008;-72
2022/04/05 01:54:25;;;;;;;15.55;5.70;;;;;;;9.25;94.83;99996.53;6280471;22;20027;-74
2022/04/05 01:56:51;;;;;;;9.52;6.32;;;;;;;9.32;94.29;99999.03;6280796;22;20011;-74
2022/04/05 01:59:22;;;;;;;16.75;5.78;;;;;;;9.33;94.25;99992.47;6281716;22;20007;-73
2022/04/05 02:01:48;;;;;;;13.88;6.95;;;;;;;9.35;93.89;99995.75;6279719;22;20003;-74
2022/04/05 02:04:14;;;;;;;15.57;7.25;;;;;;;9.40;93.33;100003.94;6281049;22;20003;-74
2022/04/05 02:06:41;;;;;;;11.85;6.20;;;;;;;9.44;93.14;100005.06;6279896;22;20003;-72
2022/04/05 02:09:07;;;;;;;17.65;6.70;;;;;;;9.44;92.92;100005.88;6282916;22;20000;-74
2022/04/05 02:11:33;;;;;;;11.13;5.55;;;;;;;9.40;92.86;99995.75;6281358;22;20485;-73
2022/04/05 02:13:59;;;;;;;12.18;6.07;;;;;;;9.39;93.03;99996.88;6253671;22;20067;-75
2022/04/05 02:16:25;;;;;;;16.15;5.85;;;;;;;9.32;93.26;99991.66;6253836;22;20010;-73
2022/04/05 02:18:51;;;;;;;18.33;5.45;;;;;;;9.32;93.15;99996.31;6280924;22;20000;-75
2022/04/05 02:21:16;;;;;;;10.15;5.13;;;;;;;9.23;93.54;99988.63;6281139;22;20008;-73
2022/04/05 02:23:41;;;;;;;10.57;5.38;;;;;;;9.19;93.63;99998.41;6282578;22;20052;-74
2022/04/05 02:26:08;;;;;;;12.20;5.30;;;;;;;9.15;94.04;99993.78;6253755;22;20011;-75
2022/04/05 02:28:37;;;;;;;17.75;5.68;;;;;;;9.11;94.00;99974.38;6280859;22;20061;-74
2022/04/05 02:31:02;;;;;;;13.75;5.20;;;;;;;9.21;93.75;99993.53;6281795;22;20004;-74
2022/04/05 02:33:28;;;;;;;8.35;4.68;;;;;;;9.12;93.46;99991.59;6281137;22;20004;-74
2022/04/05 02:36:06;;;;;;;14.43;5.15;;;;;;;9.03;93.77;99985.81;6254750;22;20010;-74
2022/04/05 02:38:32;;;;;;;9.73;5.20;;;;;;;8.91;93.86;99981.41;6230105;22;20012;-74
2022/04/05 02:41:05;;;;;;;12.45;4.88;;;;;;;8.71;94.58;99976.66;6280185;22;20063;-73
2022/04/05 02:46:25;;;;;;;;;;;;;;;;;;;;;
2022/04/05 02:48:59;;;;;;;15.68;4.55;;;;;;;8.53;96.60;99980.66;6282197;22;20023;-74
2022/04/05 02:51:25;;;;;;;12.65;6.03;;;;;;;8.43;96.33;99958.75;6256081;22;20011;-74
2022/04/05 02:53:53;;;;;;;11.50;5.15;;;;;;;8.43;96.52;99969.66;6256906;22;20003;-74
2022/04/05 02:56:18;;;;;;;12.35;4.97;;;;;;;8.51;97.34;99982.00;6256426;22;20008;-73
2022/04/05 02:58:44;;;;;;;11.88;4.68;;;;;;;8.50;97.43;99980.38;6257279;22;20014;-73
2022/04/05 03:01:09;;;;;;;13.57;4.63;;;;;;;8.63;96.78;99979.06;6257932;22;20012;-75
2022/04/05 03:03:35;;;;;;;10.63;5.45;;;;;;;8.72;96.92;99981.03;6283084;22;20011;-74
2022/04/05 03:06:01;;;;;;;14.57;5.32;;;;;;;8.81;96.70;99981.34;6255795;22;20419;-75
2022/04/05 03:08:27;;;;;;;12.55;5.15;;;;;;;8.80;96.23;99963.34;6282447;22;20019;-74
2022/04/05 03:10:53;;;;;;;10.00;4.72;;;;;;;8.95;96.00;99997.22;6283270;22;20003;-74
2022/04/05 03:13:19;;;;;;;9.73;4.43;;;;;;;8.99;95.09;99977.34;6284263;22;20057;-73
2022/04/05 03:15:44;;;;;;;14.50;4.15;;;;;;;9.00;95.01;99967.25;6283169;22;20062;-75
2022/04/05 03:18:10;;;;;;;10.70;5.07;;;;;;;9.01;94.80;99968.88;6284075;22;20004;-74
2022/04/05 03:20:35;;;;;;;11.65;4.75;;;;;;;9.01;94.37;99971.63;6257017;22;20011;-73
2022/04/05 03:23:01;;;;;;;11.45;4.82;;;;;;;9.00;94.39;99962.63;6279323;22;20004;-71
2022/04/05 03:25:29;;;;;;;14.30;4.90;;;;;;;8.97;94.34;99962.34;6280791;22;20004;-72
2022/04/05 03:27:55;;;;;;;7.53;4.18;;;;;;;8.93;94.58;99962.03;6251353;22;20015;-73
2022/04/05 03:30:22;;;;;;;12.27;4.72;;;;;;;8.89;94.72;99956.31;6280475;22;20007;-74
2022/04/05 03:32:48;;;;;;;9.25;4.40;;;;;;;8.81;95.15;99966.91;6252291;22;20094;-74
2022/04/05 03:35:14;;;;;;;16.70;5.00;;;;;;;8.72;95.32;99950.25;6248815;22;20011;-74
2022/04/05 03:37:40;;;;;;;12.25;5.13;;;;;;;8.70;96.13;99963.28;6280133;22;20093;-73
2022/04/05 03:40:07;;;;;;;7.57;5.25;;;;;;;8.65;96.33;99966.00;6280307;22;20007;-74
2022/04/05 03:42:36;;;;;;;16.13;5.55;;;;;;;8.63;96.54;99955.38;6251034;22;20011;-72
2022/04/05 03:45:01;;;;;;;16.80;5.10;;;;;;;8.53;96.26;99947.97;6254717;22;20019;-72
2022/04/05 03:47:31;;;;;;;17.73;5.70;;;;;;;8.46;96.49;99936.47;6253793;22;20003;-74
2022/04/05 03:49:57;;;;;;;10.85;5.00;;;;;;;8.42;96.87;99935.31;6281566;22;20025;-75
2022/04/05 03:52:24;;;;;;;14.70;5.15;;;;;;;8.47;97.29;99943.56;6280518;22;20061;-74
2022/04/05 03:54:50;;;;;;;22.55;5.65;;;;;;;8.43;97.33;99947.88;6279561;22;20004;-73
2022/04/05 03:57:15;;;;;;;11.25;5.85;;;;;;;8.43;97.80;99947.88;6279403;22;20029;-71
2022/04/05 03:59:41;;;;;;;12.52;6.70;;;;;;;8.39;97.87;99930.41;6227288;22;20008;-74
2022/04/05 04:02:06;;;;;;;15.90;5.65;;;;;;;8.31;98.25;99936.34;6226888;22;20008;-73
2022/04/05 04:04:32;;;;;;;12.70;5.68;;;;;;;8.32;97.73;99929.81;6252685;22;20003;-74
2022/04/05 04:06:58;;;;;;;13.30;5.97;;;;;;;8.26;98.72;99930.88;6280457;22;20482;-74
2022/04/05 04:09:24;;;;;;;15.25;6.18;;;;;;;8.20;99.06;99919.13;6251375;22;20011;-74
2022/04/05 04:11:49;;;;;;;17.02;5.93;;;;;;;8.20;99.30;99916.38;6252764;22;20067;-72
2022/04/05 04:14:16;;;;;;;17.40;7.25;;;;;;;8.23;98.86;99936.84;6252435;22;20684;-73
2022/04/05 04:16:41;;;;;;;20.08;5.78;;;;;;;8.18;99.44;99919.38;6280042;22;20137;-73
2022/04/05 04:19:07;;;;;;;21.88;6.97;;;;;;;8.17;99.05;99927.81;6250850;22;20000;-71
2022/04/05 04:21:33;;;;;;;16.30;6.13;;;;;;;8.29;99.41;99938.50;6277354;22;20022;-73
2022/04/05 04:23:59;;;;;;;11.32;6.38;;;;;;;8.36;98.66;99936.38;6276838;22;20000;-74
2022/04/05 04:26:24;;;;;;;11.15;6.00;;;;;;;8.38;98.32;99939.66;6278156;22;20031;-71
2022/04/05 04:28:52;;;;;;;16.15;5.10;;;;;;;8.46;98.11;99935.66;6254584;22;20014;-74
2022/04/05 04:31:18;;;;;;;11.65;5.05;;;;;;;8.53;97.86;99930.78;6280192;22;20063;-73
2022/04/05 04:33:43;;;;;;;12.15;5.40;;;;;;;8.61;97.54;99932.19;6249662;22;20073;-75
2022/04/05 04:36:09;;;;;;;11.77;5.20;;;;;;;8.71;96.56;99937.69;6279181;22;20014;-73
2022/04/05 04:38:35;;;;;;;9.27;5.00;;;;;;;8.77;96.08;99931.16;6281111;22;20084;-72
2022/04/05 04:41:00;;;;;;;8.70;5.30;;;;;;;8.86;95.48;99940.50;6281741;22;20004;-73
2022/04/05 04:43:30;;;;;;;9.70;6.05;;;;;;;8.90;95.17;99944.31;6280060;22;20007;-74
2022/04/05 04:45:57;;;;;;;13.80;5.65;;;;;;;8.84;94.75;99926.28;6230847;22;20035;-73
2022/04/05 04:48:24;;;;;;;9.75;5.63;;;;;;;8.97;95.04;99932.34;6259517;22;20038;-74
2022/04/05 04:50:50;;;;;;;14.85;5.75;;;;;;;8.99;94.36;99932.88;6257083;22;20012;-73
2022/04/05 04:53:16;;;;;;;15.50;6.90;;;;;;;8.95;94.85;99929.06;6283319;22;20011;-74
2022/04/05 04:55:42;;;;;;;10.93;5.97;;;;;;;9.02;94.18;99948.72;6253676;22;20018;-73
2022/04/05 04:58:07;;;;;;;12.77;6.15;;;;;;;8.97;94.78;99935.88;6228422;22;20023;-75
2022/04/05 05:00:33;;;;;;;11.30;6.82;;;;;;;9.04;94.59;99946.56;6253983;22;20008;-72
2022/04/05 05:02:58;;;;;;;11.98;6.47;;;;;;;9.04;94.71;99941.09;6253826;22;20427;-73
2022/04/05 05:05:24;;;;;;;20.98;7.53;;;;;;;9.08;94.75;99944.91;6253186;22;20304;-74
2022/04/05 05:07:51;;;;;;;12.70;7.13;;;;;;;9.07;94.35;99943.28;6279770;22;20046;-72
2022/04/05 05:10:19;;;;;;;15.00;7.32;;;;;;;9.08;94.17;99948.47;6253405;22;20014;-74
2022/04/05 05:12:45;;;;;;;15.35;6.97;;;;;;;9.04;94.32;99935.66;6278844;22;20004;-71
2022/04/05 05:15:17;;;;;;;14.02;6.45;;;;;;;9.11;94.01;99933.47;6253589;22;20015;-74
2022/04/05 05:17:43;;;;;;;11.75;6.22;;;;;;;9.13;94.15;99934.03;6279549;22;20004;-72
2022/04/05 05:20:09;;;;;;;9.77;5.85;;;;;;;9.13;93.79;99939.47;6279131;22;20175;-72
2022/04/05 05:22:39;;;;;;;13.18;6.18;;;;;;;9.14;93.64;99930.22;6280625;22;20004;-73
2022/04/05 05:25:05;;;;;;;15.63;6.32;;;;;;;9.09;93.45;99933.72;6228027;22;20008;-73
2022/04/05 05:27:33;;;;;;;13.40;5.70;;;;;;;9.17;93.83;99937.03;6252943;22;19999;-75
2022/04/05 05:30:00;;;;;;;11.27;5.85;;;;;;;9.18;93.42;99933.22;6252521;22;20011;-72
2022/04/05 05:32:25;;;;;;;16.85;6.25;;;;;;;9.19;93.44;99943.88;6277273;22;20015;-74
2022/04/05 05:34:51;;;;;;;21.38;6.18;;;;;;;9.21;93.32;99933.53;6280322;22;20298;-75
2022/04/05 05:37:16;;;;;;;16.77;6.47;;;;;;;9.17;93.13;99946.06;6284393;22;20478;-77
2022/04/05 05:39:42;;;;;;;11.48;6.68;;;;;;;9.21;93.41;99951.78;6225089;22;20491;-73
2022/04/05 05:42:08;;;;;;;15.02;6.05;;;;;;;9.19;92.99;99954.78;6278628;22;20010;-73
2022/04/05 05:44:34;;;;;;;11.82;5.90;;;;;;;9.20;92.97;99942.78;6253997;22;20566;-71
2022/04/05 05:47:19;;;;;;;17.38;6.90;;;;;;;9.10;92.93;99923.66;6279688;22;20031;-72
2022/04/05 05:49:55;;;;;;;15.20;6.78;;;;;;;9.15;92.99;99931.84;6196196;22;20007;-71
2022/04/05 05:52:21;;;;;;;18.70;7.30;;;;;;;9.07;93.42;99930.47;6278726;22;20011;-73
2022/04/05 05:54:48;;;;;;;13.55;6.78;;;;;;;9.03;93.39;99939.47;6280890;22;20012;-72
2022/04/05 05:57:13;;;;;;;16.10;6.85;;;;;;;9.02;93.89;99932.34;6253152;22;20071;-72
2022/04/05 05:59:39;;;;;;;19.17;7.85;;;;;;;9.01;93.64;99939.72;6227780;22;20046;-71
2022/04/05 06:02:04;;;;;;;18.73;7.15;;;;;;;9.04;93.28;99954.75;6253018;22;20033;-73
2022/04/05 06:04:57;;;;;;;20.65;6.93;;;;;;;9.09;93.50;99941.09;6281891;22;20022;-72
2022/04/05 06:07:22;;;;;;;20.27;8.70;;;;;;;9.08;93.30;99932.13;6255163;22;20015;-73
2022/04/05 06:09:47;;;;;;;16.67;7.18;;;;;;;9.14;93.52;99946.59;6281123;22;20008;-74
2022/04/05 06:12:24;;;;;;;17.48;7.32;;;;;;;9.14;93.14;99930.22;6252939;22;20011;-74
2022/04/05 06:14:50;;;;;;;19.00;7.78;;;;;;;9.16;93.34;99928.03;6283945;22;20381;-73
2022/04/05 06:17:16;;;;;;;16.98;7.53;;;;;;;9.18;92.64;99941.41;6279834;22;20008;-73
2022/04/05 06:19:43;;;;;;;17.42;8.00;;;;;;;9.20;92.10;99934.59;6281829;22;20030;-73
2022/04/05 06:22:09;;;;;;;21.70;7.38;;;;;;;9.20;91.67;99933.75;6229702;22;20031;-72
2022/04/05 06:24:34;;;;;;;18.92;7.95;;;;;;;9.23;91.79;99927.78;6281992;22;20008;-73
2022/04/05 06:27:00;;;;;;;14.00;7.15;;;;;;;9.25;91.47;99931.06;6253609;22;20060;-77
2022/04/05 06:29:28;;;;;;;18.40;6.20;;;;;;;9.25;91.21;99915.50;6256879;22;20330;-78
2022/04/05 06:31:54;;;;;;;19.48;6.85;;;;;;;9.33;90.82;99929.69;6257262;22;20008;-78
2022/04/05 06:34:26;;;;;;;22.02;5.88;;;;;;;9.31;90.34;99918.25;6256673;22;20007;-76
2022/04/05 06:36:53;;;;;;;11.57;6.60;;;;;;;9.26;89.70;99913.59;6231579;22;20034;-74
2022/04/05 06:39:19;;;;;;;21.45;5.97;;;;;;;9.35;89.90;99919.34;6254071;22;20299;-74
2022/04/05 06:41:45;;;;;;;15.82;5.55;;;;;;;9.47;89.17;99930.81;6280277;22;20014;-72
2022/04/05 06:44:11;;;;;;;16.63;5.40;;;;;;;9.51;87.97;99918.28;6281248;22;20003;-74
2022/04/05 06:46:48;;;;;;;16.90;4.45;;;;;;;9.57;87.67;99927.28;6254469;22;20815;-72
2022/04/05 06:49:19;;;;;;;9.35;4.32;;;;;;;9.50;86.93;99918.56;6279814;22;20000;-76
2022/04/05 06:52:04;;;;;;;17.35;4.30;;;;;;;9.53;86.66;99921.53;6282071;22;20004;-74
2022/04/05 06:54:32;;;;;;;14.18;4.40;;;;;;;9.48;85.96;99913.38;6252462;22;20065;-72
2022/04/05 06:56:57;;;;;;;20.33;4.82;;;;;;;9.55;86.25;99934.91;6280918;22;20030;-75
2022/04/05 06:59:23;;;;;;;9.65;4.10;;;;;;;9.63;86.43;99937.13;6254333;22;20004;-75
2022/04/05 07:01:51;;;;;;;11.15;4.88;;;;;;;9.65;86.18;99934.13;6206954;22;20015;-73
2022/04/05 07:04:54;;;;;;;15.10;5.18;;;;;;;9.70;85.79;99936.88;6205735;22;20564;-74
2022/04/05 07:07:40;;;;;;;;;;;;;;;;;;;;;
2022/04/05 07:10:24;;;;;;;;;;;;;;;;;;;;;
2022/04/05 07:13:26;;;;;;;;;;;;;;;;;;;;;
2022/04/05 07:16:47;;;;;;;20.45;5.07;;;;;;;9.80;84.48;99920.50;6154865;23;20021;-78
2022/04/05 07:19:13;;;;;;;16.23;5.35;;;;;;;10.06;84.17;99939.56;6138183;23;20048;-76
2022/04/05 07:28:56;;;;;;;25.98;6.57;;;;;;;10.41;82.47;99935.19;6274751;22;20027;-77
2022/04/05 07:31:24;;;;;;;18.23;6.13;;;;;;;10.37;81.32;99940.41;6260195;22;20004;-76
2022/04/05 07:39:59;;;;;;;;;;;;;;;;;;;;;
2022/04/05 07:42:47;;;;;;;17.75;4.43;;;;;;;10.76;79.92;99949.84;6258873;22;20054;-76
2022/04/05 07:45:15;;;;;;;20.73;4.78;;;;;;;10.73;79.69;99962.19;6287674;22;20003;-80
2022/04/05 07:51:22;;;;;;;;;;;;;;;;;;;;;
2022/04/05 07:53:47;;;;;;;27.48;5.75;;;;;;;10.53;79.64;99927.50;6262234;22;20031;-77
2022/04/05 07:56:13;;;;;;;21.08;5.10;;;;;;;10.31;80.40;99906.75;6209120;22;19999;-78
2022/04/05 07:58:44;;;;;;;19.77;5.05;;;;;;;10.50;80.07;99930.81;6234891;22;20011;-78
2022/04/05 08:01:12;;;;;;;19.73;5.30;;;;;;;10.61;79.05;99924.19;6209671;22;20004;-78
2022/04/05 08:07:09;;;;;;;15.60;5.15;;;;;;;11.26;78.29;99936.25;6283490;22;20033;-79
2022/04/05 08:09:34;;;;;;;21.55;4.80;;;;;;;11.50;77.00;99950.84;6256087;22;20023;-77
2022/04/05 08:12:00;;;;;;;14.05;4.93;;;;;;;11.53;76.88;99913.88;6282781;22;20083;-76
2022/04/05 08:14:29;;;;;;;23.65;4.82;;;;;;;11.78;75.60;99929.28;6283246;22;20015;-77
2022/04/05 09:11:07;;;;;;;25.67;5.20;;;;;;;13.61;64.95;99972.59;6216197;22;21034;-78
2022/04/05 09:13:32;;;;;;;15.63;3.88;;;;;;;13.95;63.99;99966.00;6257683;22;20023;-76
2022/04/05 09:15:59;;;;;;;19.13;4.22;;;;;;;13.98;62.52;99976.41;6231610;22;20018;-76
2022/04/05 09:18:38;;;;;;;19.15;4.22;;;;;;;13.52;63.46;99958.69;6256220;22;20051;-78
2022/04/05 09:21:06;;;;;;;20.58;4.82;;;;;;;13.98;61.62;99981.91;6256958;22;20019;-77
2022/04/05 09:23:38;;;;;;;14.25;4.07;;;;;;;14.32;61.70;99980.78;6256266;22;20015;-77
2022/04/05 09:26:18;;;;;;;33.10;6.22;;;;;;;14.71;59.50;99949.28;6257861;22;20109;-76
2022/04/05 09:28:44;;;;;;;13.07;4.32;;;;;;;14.23;59.56;99966.09;6284012;22;20054;-77
2022/04/05 09:31:24;;;;;;;;;;;;;;;;;;;;;
2022/04/05 09:34:12;;;;;;;26.35;4.93;;;;;;;12.86;64.86;99963.09;6286651;22;20027;-78
2022/04/05 09:36:45;;;;;;;13.75;2.95;;;;;;;12.67;64.83;99952.88;6260801;22;19999;-80
2022/04/05 09:39:17;;;;;;;11.80;3.08;;;;;;;13.21;64.23;99950.03;6258554;22;20007;-77
2022/04/05 09:41:47;;;;;;;12.70;3.22;;;;;;;14.01;60.03;99964.81;6284134;22;19999;-75
2022/04/05 09:44:23;;;;;;;14.65;3.05;;;;;;;14.90;57.95;99951.13;6256236;22;20018;-78
2022/04/05 09:46:52;;;;;;;23.33;3.22;;;;;;;14.89;57.47;99974.25;6254383;22;20034;-77
2022/04/05 09:49:17;;;;;;;12.10;2.25;;;;;;;14.42;57.84;99955.84;6232308;22;20011;-78
2022/04/05 09:51:45;;;;;;;11.75;2.63;;;;;;;14.62;57.42;99984.94;6231393;22;20008;-79
2022/04/05 09:54:37;;;;;;;16.25;2.72;;;;;;;14.32;58.78;99972.53;6284186;22;20406;-80
2022/04/05 09:57:08;;;;;;;16.48;2.70;;;;;;;13.93;58.51;99959.97;6255681;22;20012;-78
2022/04/05 09:59:53;;;;;;;10.52;2.70;;;;;;;13.93;59.41;99963.56;6285301;22;20485;-79
2022/04/05 10:02:20;;;;;;;14.50;3.65;;;;;;;14.30;57.61;99983.03;6231003;22;20004;-78
2022/04/05 10:05:04;;;;;;;10.88;2.03;;;;;;;14.62;57.75;99962.13;6253607;22;20023;-79
2022/04/05 10:07:32;;;;;;;15.98;2.75;;;;;;;14.66;57.32;99946.63;6254527;22;20007;-77
2022/04/05 10:10:09;;;;;;;16.88;2.80;;;;;;;14.97;55.33;99970.81;6254482;22;20372;-78
2022/04/05 10:12:34;;;;;;;16.48;2.38;;;;;;;15.13;55.04;99944.56;6281143;22;20082;-77
2022/04/05 10:15:00;;;;;;;14.65;2.88;;;;;;;15.47;53.06;99937.75;6255380;22;20331;-78
2022/04/05 10:17:27;;;;;;;15.60;2.42;;;;;;;15.23;53.04;99948.22;6205097;22;20007;-78
2022/04/05 10:20:12;;;;;;;;;;;;;;;;;;;;;
2022/04/05 10:22:47;;;;;;;9.90;2.08;;;;;;;14.98;54.28;99936.63;6258886;22;20046;-79
2022/04/05 10:25:15;;;;;;;15.93;2.65;;;;;;;15.08;54.34;99950.16;6257584;22;20000;-77
2022/04/05 10:27:50;;;;;;;8.93;1.98;;;;;;;14.86;55.22;99925.31;6260899;22;19995;-78
2022/04/05 10:30:27;;;;;;;7.18;2.05;;;;;;;15.06;56.22;99963.44;6266686;22;20000;-77
2022/04/05 10:33:03;;;;;;;16.40;3.30;;;;;;;15.05;54.67;99972.81;6296529;22;20070;-81
2022/04/05 10:35:30;;;;;;;10.40;1.90;;;;;;;15.09;54.85;99971.09;6258132;22;20008;-79
2022/04/05 10:38:29;;;;;;;;;;;;;;;;;;;;;
2022/04/05 10:41:12;;;;;;;11.10;1.90;;;;;;;14.33;57.47;99943.91;6283610;22;20019;-79
2022/04/05 10:43:42;;;;;;;13.27;2.28;;;;;;;14.00;56.43;99945.88;6255815;22;20073;-81
2022/04/05 10:46:08;;;;;;;10.02;2.17;;;;;;;14.39;55.82;99926.19;6255250;22;20004;-79
2022/04/05 10:48:34;;;;;;;8.18;2.13;;;;;;;14.97;53.72;99957.84;6231922;22;20026;-78
2022/04/05 10:51:07;;;;;;;9.27;1.85;;;;;;;14.94;53.28;99950.19;6257568;22;20327;-82
2022/04/05 10:53:38;;;;;;;12.75;1.65;;;;;;;14.64;53.25;99955.19;6256376;22;20007;-79
2022/04/05 11:00:12;;;;;;;7.07;1.50;;;;;;;13.92;58.38;99950.94;6281568;22;20011;-80
2022/04/05 11:03:04;;;;;;;10.20;1.75;;;;;;;13.55;59.22;99947.13;6236278;22;20011;-76
2022/04/05 11:05:38;;;;;;;9.68;2.35;;;;;;;13.42;57.37;99954.16;6257660;22;20019;-79
2022/04/05 11:08:18;;;;;;;8.98;1.48;;;;;;;13.65;57.80;99939.81;6259147;22;19999;-81
2022/04/05 11:11:25;;;;;;;7.50;1.40;;;;;;;13.68;58.14;99928.22;6260408;22;20004;-82
2022/04/05 11:16:58;;;;;;;;;;;;;;;;;;;;;
2022/04/05 11:19:27;;;;;;;7.30;1.65;;;;;;;13.40;57.81;99939.09;6299875;22;20003;-79
2022/04/05 11:22:05;;;;;;;9.40;1.83;;;;;;;13.24;58.44;99897.28;6271311;22;20008;-78
2022/04/05 11:24:56;;;;;;;11.02;1.55;;;;;;;13.79;56.90;99896.72;6292663;22;20007;-79
2022/04/05 11:27:45;;;;;;;12.50;1.63;;;;;;;15.12;53.26;99931.09;6297883;22;20022;-77
2022/04/05 11:31:02;;;;;;;9.65;1.13;;;;;;;15.64;51.33;99922.50;6294707;22;20000;-77
2022/04/05 11:40:31;;;;;;;2.80;0.70;;;;;;;16.14;43.75;99911.34;6191508;23;20104;-76
2022/04/05 11:43:03;;;;;;;6.07;0.90;;;;;;;17.51;43.29;99917.94;6202790;22;20057;-78
2022/04/05 11:57:03;;;;;;;2.97;0.90;;;;;;;17.70;43.12;99902.97;6096288;23;20002;-77
2022/04/05 12:00:22;;;;;;;2.03;0.60;;;;;;;18.50;41.67;99888.66;6037286;23;20059;-77
2022/04/05 12:03:37;;;;;;;6.28;0.85;;;;;;;18.87;39.85;99888.16;6038101;23;20007;-77
2022/04/05 12:06:07;;;;;;;5.20;1.03;;;;;;;19.81;37.01;99923.00;6035097;23;20038;-75
2022/04/05 12:08:42;;;;;;;6.55;1.08;;;;;;;19.54;38.96;99903.00;6107430;23;20674;-78
2022/04/05 12:11:10;;;;;;;6.38;1.25;;;;;;;18.15;40.13;99913.69;6103182;23;20114;-72
2022/04/05 12:17:03;;;;;;;5.50;1.23;;;;;;;17.20;42.81;99888.50;6199325;22;20076;-79
2022/04/05 12:22:48;;;;;;;7.03;1.20;;;;;;;18.72;43.11;99908.88;6285619;22;20034;-79
2022/04/05 12:25:16;;;;;;;4.18;1.13;;;;;;;18.90;40.20;99879.97;6258868;22;20027;-80
2022/04/05 12:27:57;;;;;;;5.18;1.15;;;;;;;18.69;41.50;99884.63;6256747;22;20003;-78
2022/04/05 12:30:56;;;;;;;5.93;1.48;;;;;;;17.35;44.61;99891.94;6232974;22;20440;-80
2022/04/05 12:33:25;;;;;;;4.38;1.02;;;;;;;16.29;44.05;99868.72;6254545;22;20004;-79
2022/04/05 12:35:53;;;;;;;7.65;1.65;;;;;;;15.49;46.69;99863.88;6233141;22;20026;-79
2022/04/05 12:38:21;;;;;;;6.80;1.75;;;;;;;14.55;49.19;99879.13;6233905;22;20304;-79
2022/04/05 12:40:51;;;;;;;10.32;2.55;;;;;;;13.88;52.28;99872.13;6232834;22;20003;-79
2022/04/05 12:43:21;;;;;;;10.70;2.03;;;;;;;13.82;52.65;99876.09;6254611;22;20007;-78
2022/04/05 12:45:47;;;;;;;14.18;2.08;;;;;;;14.31;52.77;99880.97;6230267;22;20015;-79
2022/04/05 12:48:15;;;;;;;9.70;1.38;;;;;;;14.76;51.29;99894.16;6255156;22;20030;-79
2022/04/05 12:50:49;;;;;;;7.68;1.75;;;;;;;14.84;52.33;99903.63;6278904;22;20065;-80
2022/04/05 12:53:39;;;;;;;7.55;1.48;;;;;;;14.72;53.28;99895.88;6284107;22;20003;-80
2022/04/05 12:56:09;;;;;;;9.07;1.42;;;;;;;14.92;50.97;99882.78;6254412;22;20003;-78
2022/04/05 12:58:40;;;;;;;11.43;1.35;;;;;;;15.15;50.00;99886.44;6254871;22;20011;-80
2022/04/05 13:01:27;;;;;;;10.68;1.80;;;;;;;14.95;51.97;99871.16;6257592;22;20441;-79
2022/04/05 13:04:04;;;;;;;3.40;1.25;;;;;;;15.30;51.02;99894.34;6230617;22;20016;-80
2022/04/05 13:06:31;;;;;;;6.55;1.30;;;;;;;15.23;49.70;99877.44;6283386;22;20303;-80
2022/04/05 13:09:14;;;;;;;5.22;1.27;;;;;;;15.96;50.80;99882.88;6282366;22;20003;-79
2022/04/05 13:11:40;;;;;;;7.53;1.30;;;;;;;16.00;47.57;99889.38;6254494;22;20007;-79
2022/04/05 13:14:12;;;;;;;7.10;1.48;;;;;;;15.30;50.44;99888.84;6254773;22;20140;-79
2022/04/05 13:16:38;;;;;;;8.43;2.53;;;;;;;15.06;51.26;99888.28;6254993;22;20087;-79
2022/04/05 13:19:15;;;;;;;5.82;1.55;;;;;;;15.14;52.84;99888.38;6253617;22;20088;-79
2022/04/05 13:21:58;;;;;;;8.25;1.85;;;;;;;15.27;51.20;99875.66;6254944;22;20006;-79
2022/04/05 13:24:44;;;;;;;8.90;1.70;;;;;;;14.76;54.48;99874.06;6230640;22;20000;-80
2022/04/05 13:27:11;;;;;;;9.15;2.05;;;;;;;14.55;53.39;99876.38;6253910;22;20003;-79
2022/04/05 13:29:41;;;;;;;9.15;1.60;;;;;;;14.53;53.91;99878.63;6256982;22;20099;-79
2022/04/05 13:32:08;;;;;;;8.90;1.60;;;;;;;14.58;54.56;99870.28;6257833;22;20008;-79
2022/04/05 13:34:36;;;;;;;9.50;1.92;;;;;;;14.69;54.13;99863.47;6233753;22;20554;-79
2022/04/05 13:37:03;;;;;;;9.02;1.67;;;;;;;14.59;53.32;99874.66;6259674;22;20007;-79
2022/04/05 13:39:33;;;;;;;9.02;2.10;;;;;;;14.10;55.18;99857.72;6255235;22;20011;-79
2022/04/05 13:42:00;;;;;;;6.18;1.85;;;;;;;13.76;56.03;99848.69;6284188;22;19996;-80
2022/04/05 13:44:26;;;;;;;5.82;1.50;;;;;;;13.65;57.11;99849.16;6283854;22;20003;-80
2022/04/05 13:47:03;;;;;;;4.57;1.25;;;;;;;13.96;57.19;99861.25;6253892;22;20015;-80
2022/04/05 13:49:37;;;;;;;6.57;1.25;;;;;;;14.11;56.04;99838.16;6255806;22;20015;-79